sensor_id;sensor_type;location;lat;lon;timestamp;P1;durP1;ratioP1;P2;durP2;ratioP2
46116;SDS011;32591;48.102;11.772;2023-03-01T00:01:35;23.63;;;11.27;;
46116;SDS011;32591;48.102;11.772;2023-03-01T00:04:02;19.13;;;11.13;;
46116;SDS011;32591;48.102;11.772;2023-03-01T00:06:29;20.75;;;10.20;;
46116;SDS011;32591;48.102;11.772;2023-03-01T00:11:24;20.48;;;9.90;;
46116;SDS011;32591;48.102;11.772;2023-03-01T00:13:54;19.30;;;9.60;;
46116;SDS011;32591;48.102;11.772;2023-03-01T00:16:24;21.48;;;10.65;;
46116;SDS011;32591;48.102;11.772;2023-03-01T00:18:54;21.25;;;10.82;;
46116;SDS011;32591;48.102;11.772;2023-03-01T00:21:22;19.75;;;11.27;;
46116;SDS011;32591;48.102;11.772;2023-03-01T00:23:50;20.50;;;9.88;;
46116;SDS011;32591;48.102;11.772;2023-03-01T00:26:18;17.67;;;10.40;;
46116;SDS011;32591;48.102;11.772;2023-03-01T00:28:48;18.23;;;10.65;;
46116;SDS011;32591;48.102;11.772;2023-03-01T00:31:17;20.00;;;9.80;;
46116;SDS011;32591;48.102;11.772;2023-03-01T00:33:46;21.65;;;10.50;;
46116;SDS011;32591;48.102;11.772;2023-03-01T00:36:14;23.15;;;10.30;;
46116;SDS011;32591;48.102;11.772;2023-03-01T00:38:42;18.10;;;10.40;;
46116;SDS011;32591;48.102;11.772;2023-03-01T00:41:12;21.20;;;10.80;;
46116;SDS011;32591;48.102;11.772;2023-03-01T00:43:40;23.45;;;11.45;;
46116;SDS011;32591;48.102;11.772;2023-03-01T00:46:10;19.08;;;11.05;;
46116;SDS011;32591;48.102;11.772;2023-03-01T00:48:39;18.67;;;10.23;;
46116;SDS011;32591;48.102;11.772;2023-03-01T00:51:07;18.58;;;9.98;;
46116;SDS011;32591;48.102;11.772;2023-03-01T00:53:36;17.60;;;10.18;;
46116;SDS011;32591;48.102;11.772;2023-03-01T00:56:04;20.05;;;10.23;;
46116;SDS011;32591;48.102;11.772;2023-03-01T00:58:33;18.08;;;10.02;;
46116;SDS011;32591;48.102;11.772;2023-03-01T01:01:06;18.35;;;9.75;;
46116;SDS011;32591;48.102;11.772;2023-03-01T01:03:43;19.35;;;10.50;;
46116;SDS011;32591;48.102;11.772;2023-03-01T01:06:15;22.50;;;10.98;;
46116;SDS011;32591;48.102;11.772;2023-03-01T01:08:44;18.45;;;11.00;;
46116;SDS011;32591;48.102;11.772;2023-03-01T01:13:39;17.38;;;9.63;;
46116;SDS011;32591;48.102;11.772;2023-03-01T01:16:07;18.15;;;10.15;;
46116;SDS011;32591;48.102;11.772;2023-03-01T01:18:34;17.08;;;9.88;;
46116;SDS011;32591;48.102;11.772;2023-03-01T01:21:07;18.85;;;10.35;;
46116;SDS011;32591;48.102;11.772;2023-03-01T01:23:37;17.20;;;9.95;;
46116;SDS011;32591;48.102;11.772;2023-03-01T01:26:05;18.50;;;10.50;;
46116;SDS011;32591;48.102;11.772;2023-03-01T01:28:34;20.10;;;10.10;;
46116;SDS011;32591;48.102;11.772;2023-03-01T01:31:02;17.38;;;9.85;;
46116;SDS011;32591;48.102;11.772;2023-03-01T01:33:30;18.15;;;12.40;;
46116;SDS011;32591;48.102;11.772;2023-03-01T01:35:57;20.92;;;11.27;;
46116;SDS011;32591;48.102;11.772;2023-03-01T01:38:25;23.92;;;11.60;;
46116;SDS011;32591;48.102;11.772;2023-03-01T01:40:52;19.33;;;10.85;;
46116;SDS011;32591;48.102;11.772;2023-03-01T01:45:49;20.08;;;10.60;;
46116;SDS011;32591;48.102;11.772;2023-03-01T01:48:16;17.85;;;10.20;;
46116;SDS011;32591;48.102;11.772;2023-03-01T01:50:51;21.23;;;10.60;;
46116;SDS011;32591;48.102;11.772;2023-03-01T01:53:23;21.30;;;9.70;;
46116;SDS011;32591;48.102;11.772;2023-03-01T01:55:54;15.73;;;9.93;;
46116;SDS011;32591;48.102;11.772;2023-03-01T01:58:25;19.30;;;10.48;;
46116;SDS011;32591;48.102;11.772;2023-03-01T02:00:55;21.25;;;9.93;;
46116;SDS011;32591;48.102;11.772;2023-03-01T02:03:25;19.73;;;10.98;;
46116;SDS011;32591;48.102;11.772;2023-03-01T02:05:59;21.35;;;10.93;;
46116;SDS011;32591;48.102;11.772;2023-03-01T02:08:33;19.02;;;9.82;;
46116;SDS011;32591;48.102;11.772;2023-03-01T02:11:04;20.35;;;10.55;;
46116;SDS011;32591;48.102;11.772;2023-03-01T02:13:31;19.90;;;10.77;;
46116;SDS011;32591;48.102;11.772;2023-03-01T02:16:02;20.50;;;10.25;;
46116;SDS011;32591;48.102;11.772;2023-03-01T02:18:30;21.27;;;11.10;;
46116;SDS011;32591;48.102;11.772;2023-03-01T02:21:03;17.67;;;10.75;;
46116;SDS011;32591;48.102;11.772;2023-03-01T02:23:41;19.60;;;10.18;;
46116;SDS011;32591;48.102;11.772;2023-03-01T02:26:11;20.10;;;10.90;;
46116;SDS011;32591;48.102;11.772;2023-03-01T02:28:48;18.67;;;10.63;;
46116;SDS011;32591;48.102;11.772;2023-03-01T02:31:16;20.95;;;10.63;;
46116;SDS011;32591;48.102;11.772;2023-03-01T02:34:18;19.98;;;10.63;;
46116;SDS011;32591;48.102;11.772;2023-03-01T02:36:51;19.92;;;11.68;;
46116;SDS011;32591;48.102;11.772;2023-03-01T02:39:22;21.63;;;11.60;;
46116;SDS011;32591;48.102;11.772;2023-03-01T02:41:53;18.70;;;11.18;;
46116;SDS011;32591;48.102;11.772;2023-03-01T02:44:23;21.10;;;10.25;;
46116;SDS011;32591;48.102;11.772;2023-03-01T02:46:51;20.27;;;10.65;;
46116;SDS011;32591;48.102;11.772;2023-03-01T02:49:23;20.77;;;10.60;;
46116;SDS011;32591;48.102;11.772;2023-03-01T02:54:53;21.30;;;11.65;;
46116;SDS011;32591;48.102;11.772;2023-03-01T02:57:27;19.33;;;10.98;;
46116;SDS011;32591;48.102;11.772;2023-03-01T02:59:57;21.40;;;10.88;;
46116;SDS011;32591;48.102;11.772;2023-03-01T03:02:32;20.90;;;10.90;;
46116;SDS011;32591;48.102;11.772;2023-03-01T03:05:04;20.75;;;9.50;;
46116;SDS011;32591;48.102;11.772;2023-03-01T03:07:34;22.17;;;11.60;;
46116;SDS011;32591;48.102;11.772;2023-03-01T03:10:05;20.55;;;10.23;;
46116;SDS011;32591;48.102;11.772;2023-03-01T03:12:36;18.45;;;9.93;;
46116;SDS011;32591;48.102;11.772;2023-03-01T03:15:06;20.40;;;10.38;;
46116;SDS011;32591;48.102;11.772;2023-03-01T03:17:35;20.95;;;10.73;;
46116;SDS011;32591;48.102;11.772;2023-03-01T03:20:03;18.02;;;10.60;;
46116;SDS011;32591;48.102;11.772;2023-03-01T03:22:35;21.65;;;11.10;;
46116;SDS011;32591;48.102;11.772;2023-03-01T03:25:03;18.85;;;10.30;;
46116;SDS011;32591;48.102;11.772;2023-03-01T03:27:31;19.00;;;10.90;;
46116;SDS011;32591;48.102;11.772;2023-03-01T03:29:58;22.38;;;11.15;;
46116;SDS011;32591;48.102;11.772;2023-03-01T03:37:20;20.65;;;10.00;;
46116;SDS011;32591;48.102;11.772;2023-03-01T03:40:01;23.05;;;10.88;;
46116;SDS011;32591;48.102;11.772;2023-03-01T03:42:29;20.17;;;11.38;;
46116;SDS011;32591;48.102;11.772;2023-03-01T03:47:23;18.40;;;9.73;;
46116;SDS011;32591;48.102;11.772;2023-03-01T03:49:51;18.05;;;10.25;;
46116;SDS011;32591;48.102;11.772;2023-03-01T03:52:18;23.88;;;11.77;;
46116;SDS011;32591;48.102;11.772;2023-03-01T03:57:12;18.90;;;10.18;;
46116;SDS011;32591;48.102;11.772;2023-03-01T04:02:06;23.17;;;11.40;;
46116;SDS011;32591;48.102;11.772;2023-03-01T04:04:33;21.52;;;10.48;;
46116;SDS011;32591;48.102;11.772;2023-03-01T04:07:02;21.27;;;10.27;;
46116;SDS011;32591;48.102;11.772;2023-03-01T04:09:29;20.77;;;10.98;;
46116;SDS011;32591;48.102;11.772;2023-03-01T04:14:23;22.52;;;10.55;;
46116;SDS011;32591;48.102;11.772;2023-03-01T04:16:50;20.70;;;10.48;;
46116;SDS011;32591;48.102;11.772;2023-03-01T04:19:17;22.05;;;11.55;;
46116;SDS011;32591;48.102;11.772;2023-03-01T04:24:12;18.73;;;9.97;;
46116;SDS011;32591;48.102;11.772;2023-03-01T04:26:39;21.65;;;11.43;;
46116;SDS011;32591;48.102;11.772;2023-03-01T04:29:06;20.00;;;10.38;;
46116;SDS011;32591;48.102;11.772;2023-03-01T04:31:33;22.33;;;10.65;;
46116;SDS011;32591;48.102;11.772;2023-03-01T04:36:28;17.02;;;9.82;;
46116;SDS011;32591;48.102;11.772;2023-03-01T04:38:55;21.02;;;11.40;;
46116;SDS011;32591;48.102;11.772;2023-03-01T04:41:24;18.70;;;10.68;;
46116;SDS011;32591;48.102;11.772;2023-03-01T04:43:52;21.20;;;10.65;;
46116;SDS011;32591;48.102;11.772;2023-03-01T04:46:19;20.83;;;10.93;;
46116;SDS011;32591;48.102;11.772;2023-03-01T04:48:47;22.17;;;11.23;;
46116;SDS011;32591;48.102;11.772;2023-03-01T04:51:14;20.70;;;11.40;;
46116;SDS011;32591;48.102;11.772;2023-03-01T04:53:43;20.77;;;10.40;;
46116;SDS011;32591;48.102;11.772;2023-03-01T04:56:11;21.35;;;11.02;;
46116;SDS011;32591;48.102;11.772;2023-03-01T04:58:41;24.13;;;11.75;;
46116;SDS011;32591;48.102;11.772;2023-03-01T05:01:09;23.48;;;11.02;;
46116;SDS011;32591;48.102;11.772;2023-03-01T05:03:40;18.30;;;10.53;;
46116;SDS011;32591;48.102;11.772;2023-03-01T05:06:09;20.10;;;11.03;;
46116;SDS011;32591;48.102;11.772;2023-03-01T05:08:36;20.08;;;10.73;;
46116;SDS011;32591;48.102;11.772;2023-03-01T05:11:04;21.50;;;11.57;;
46116;SDS011;32591;48.102;11.772;2023-03-01T05:13:34;18.40;;;11.03;;
46116;SDS011;32591;48.102;11.772;2023-03-01T05:16:03;24.73;;;11.45;;
46116;SDS011;32591;48.102;11.772;2023-03-01T05:18:36;21.83;;;10.90;;
46116;SDS011;32591;48.102;11.772;2023-03-01T05:21:04;21.98;;;11.70;;
46116;SDS011;32591;48.102;11.772;2023-03-01T05:23:33;20.63;;;10.95;;
46116;SDS011;32591;48.102;11.772;2023-03-01T05:26:02;22.27;;;11.23;;
46116;SDS011;32591;48.102;11.772;2023-03-01T05:28:31;19.17;;;10.83;;
46116;SDS011;32591;48.102;11.772;2023-03-01T05:30:58;20.97;;;10.97;;
46116;SDS011;32591;48.102;11.772;2023-03-01T05:33:26;22.55;;;10.85;;
46116;SDS011;32591;48.102;11.772;2023-03-01T05:35:54;18.93;;;11.00;;
46116;SDS011;32591;48.102;11.772;2023-03-01T05:38:21;19.63;;;10.73;;
46116;SDS011;32591;48.102;11.772;2023-03-01T05:40:48;22.67;;;10.57;;
46116;SDS011;32591;48.102;11.772;2023-03-01T05:43:16;19.47;;;10.70;;
46116;SDS011;32591;48.102;11.772;2023-03-01T05:45:44;21.52;;;11.32;;
46116;SDS011;32591;48.102;11.772;2023-03-01T05:48:11;20.02;;;11.98;;
46116;SDS011;32591;48.102;11.772;2023-03-01T05:50:41;23.07;;;11.07;;
46116;SDS011;32591;48.102;11.772;2023-03-01T05:53:11;22.08;;;11.75;;
46116;SDS011;32591;48.102;11.772;2023-03-01T05:55:40;22.70;;;11.20;;
46116;SDS011;32591;48.102;11.772;2023-03-01T05:58:09;21.03;;;12.33;;
46116;SDS011;32591;48.102;11.772;2023-03-01T06:00:39;19.37;;;10.30;;
46116;SDS011;32591;48.102;11.772;2023-03-01T06:03:09;26.00;;;12.00;;
46116;SDS011;32591;48.102;11.772;2023-03-01T06:05:37;20.50;;;11.23;;
46116;SDS011;32591;48.102;11.772;2023-03-01T06:08:06;23.75;;;11.75;;
46116;SDS011;32591;48.102;11.772;2023-03-01T06:10:33;21.95;;;11.95;;
46116;SDS011;32591;48.102;11.772;2023-03-01T06:15:27;23.70;;;10.73;;
46116;SDS011;32591;48.102;11.772;2023-03-01T06:20:23;23.00;;;11.65;;
46116;SDS011;32591;48.102;11.772;2023-03-01T06:22:53;26.07;;;11.17;;
46116;SDS011;32591;48.102;11.772;2023-03-01T06:27:50;20.97;;;10.17;;
46116;SDS011;32591;48.102;11.772;2023-03-01T06:30:18;20.15;;;11.10;;
46116;SDS011;32591;48.102;11.772;2023-03-01T06:32:47;27.00;;;11.83;;
46116;SDS011;32591;48.102;11.772;2023-03-01T06:35:16;22.30;;;12.45;;
46116;SDS011;32591;48.102;11.772;2023-03-01T06:37:45;25.45;;;11.57;;
46116;SDS011;32591;48.102;11.772;2023-03-01T06:40:14;22.92;;;11.63;;
46116;SDS011;32591;48.102;11.772;2023-03-01T06:42:43;23.75;;;11.85;;
46116;SDS011;32591;48.102;11.772;2023-03-01T06:45:15;20.15;;;11.07;;
46116;SDS011;32591;48.102;11.772;2023-03-01T06:47:44;27.43;;;12.27;;
46116;SDS011;32591;48.102;11.772;2023-03-01T06:50:11;22.70;;;12.13;;
46116;SDS011;32591;48.102;11.772;2023-03-01T06:52:39;18.70;;;10.63;;
46116;SDS011;32591;48.102;11.772;2023-03-01T06:57:34;21.40;;;10.77;;
46116;SDS011;32591;48.102;11.772;2023-03-01T07:02:31;24.92;;;12.13;;
46116;SDS011;32591;48.102;11.772;2023-03-01T07:04:58;26.05;;;11.45;;
46116;SDS011;32591;48.102;11.772;2023-03-01T07:07:25;23.58;;;11.10;;
46116;SDS011;32591;48.102;11.772;2023-03-01T07:09:52;23.70;;;11.87;;
46116;SDS011;32591;48.102;11.772;2023-03-01T07:12:19;22.02;;;11.45;;
46116;SDS011;32591;48.102;11.772;2023-03-01T07:17:14;23.73;;;11.67;;
46116;SDS011;32591;48.102;11.772;2023-03-01T07:19:41;22.93;;;11.00;;
46116;SDS011;32591;48.102;11.772;2023-03-01T07:22:08;25.50;;;12.57;;
46116;SDS011;32591;48.102;11.772;2023-03-01T07:24:35;25.63;;;12.40;;
46116;SDS011;32591;48.102;11.772;2023-03-01T07:27:01;23.25;;;12.43;;
46116;SDS011;32591;48.102;11.772;2023-03-01T07:29:29;24.43;;;11.93;;
46116;SDS011;32591;48.102;11.772;2023-03-01T07:31:56;24.98;;;11.85;;
46116;SDS011;32591;48.102;11.772;2023-03-01T07:34:24;24.90;;;11.73;;
46116;SDS011;32591;48.102;11.772;2023-03-01T07:36:51;23.25;;;11.85;;
46116;SDS011;32591;48.102;11.772;2023-03-01T07:41:45;26.07;;;12.33;;
46116;SDS011;32591;48.102;11.772;2023-03-01T07:44:12;25.40;;;11.98;;
46116;SDS011;32591;48.102;11.772;2023-03-01T07:46:40;23.43;;;12.70;;
46116;SDS011;32591;48.102;11.772;2023-03-01T07:49:07;29.50;;;13.13;;
46116;SDS011;32591;48.102;11.772;2023-03-01T07:51:36;24.67;;;13.20;;
46116;SDS011;32591;48.102;11.772;2023-03-01T07:54:03;26.50;;;12.63;;
46116;SDS011;32591;48.102;11.772;2023-03-01T07:56:30;25.90;;;13.03;;
46116;SDS011;32591;48.102;11.772;2023-03-01T08:01:25;25.27;;;13.10;;
46116;SDS011;32591;48.102;11.772;2023-03-01T08:06:19;33.07;;;12.33;;
46116;SDS011;32591;48.102;11.772;2023-03-01T08:13:41;26.30;;;12.32;;
46116;SDS011;32591;48.102;11.772;2023-03-01T08:16:09;24.50;;;13.27;;
46116;SDS011;32591;48.102;11.772;2023-03-01T08:18:39;26.70;;;12.20;;
46116;SDS011;32591;48.102;11.772;2023-03-01T08:21:09;20.67;;;11.50;;
46116;SDS011;32591;48.102;11.772;2023-03-01T08:23:38;24.40;;;12.50;;
46116;SDS011;32591;48.102;11.772;2023-03-01T08:26:08;25.45;;;14.23;;
46116;SDS011;32591;48.102;11.772;2023-03-01T08:28:38;31.48;;;14.05;;
46116;SDS011;32591;48.102;11.772;2023-03-01T08:31:12;28.00;;;14.52;;
46116;SDS011;32591;48.102;11.772;2023-03-01T08:33:41;28.63;;;13.88;;
46116;SDS011;32591;48.102;11.772;2023-03-01T08:38:35;24.38;;;11.32;;
46116;SDS011;32591;48.102;11.772;2023-03-01T08:43:31;28.02;;;13.10;;
46116;SDS011;32591;48.102;11.772;2023-03-01T08:45:58;26.13;;;12.73;;
46116;SDS011;32591;48.102;11.772;2023-03-01T08:48:25;27.85;;;12.82;;
46116;SDS011;32591;48.102;11.772;2023-03-01T08:50:54;23.42;;;11.52;;
46116;SDS011;32591;48.102;11.772;2023-03-01T08:53:21;23.70;;;12.93;;
46116;SDS011;32591;48.102;11.772;2023-03-01T08:55:49;27.80;;;12.60;;
46116;SDS011;32591;48.102;11.772;2023-03-01T09:00:44;25.80;;;13.07;;
46116;SDS011;32591;48.102;11.772;2023-03-01T09:03:11;27.25;;;13.75;;
46116;SDS011;32591;48.102;11.772;2023-03-01T09:08:04;27.80;;;13.05;;
46116;SDS011;32591;48.102;11.772;2023-03-01T09:10:36;29.10;;;13.43;;
46116;SDS011;32591;48.102;11.772;2023-03-01T09:13:04;26.83;;;13.68;;
46116;SDS011;32591;48.102;11.772;2023-03-01T09:17:59;22.95;;;12.35;;
46116;SDS011;32591;48.102;11.772;2023-03-01T09:20:27;27.83;;;13.52;;
46116;SDS011;32591;48.102;11.772;2023-03-01T09:22:54;23.35;;;11.70;;
46116;SDS011;32591;48.102;11.772;2023-03-01T09:27:49;24.85;;;12.77;;
46116;SDS011;32591;48.102;11.772;2023-03-01T09:30:17;24.40;;;12.60;;
46116;SDS011;32591;48.102;11.772;2023-03-01T09:32:44;27.52;;;13.60;;
46116;SDS011;32591;48.102;11.772;2023-03-01T09:35:13;25.60;;;12.77;;
46116;SDS011;32591;48.102;11.772;2023-03-01T09:37:40;26.35;;;13.57;;
46116;SDS011;32591;48.102;11.772;2023-03-01T09:40:09;25.98;;;14.07;;
46116;SDS011;32591;48.102;11.772;2023-03-01T09:42:46;24.63;;;13.23;;
46116;SDS011;32591;48.102;11.772;2023-03-01T09:45:24;31.92;;;14.05;;
46116;SDS011;32591;48.102;11.772;2023-03-01T09:47:56;28.73;;;13.35;;
46116;SDS011;32591;48.102;11.772;2023-03-01T09:50:26;21.15;;;12.90;;
46116;SDS011;32591;48.102;11.772;2023-03-01T09:53:00;29.67;;;13.45;;
46116;SDS011;32591;48.102;11.772;2023-03-01T09:55:30;27.52;;;13.60;;
46116;SDS011;32591;48.102;11.772;2023-03-01T09:58:04;26.77;;;11.68;;
46116;SDS011;32591;48.102;11.772;2023-03-01T10:00:52;23.17;;;10.65;;
46116;SDS011;32591;48.102;11.772;2023-03-01T10:03:21;22.90;;;11.60;;
46116;SDS011;32591;48.102;11.772;2023-03-01T10:05:56;24.02;;;12.05;;
46116;SDS011;32591;48.102;11.772;2023-03-01T10:11:04;21.73;;;11.15;;
46116;SDS011;32591;48.102;11.772;2023-03-01T10:13:47;22.33;;;11.70;;
46116;SDS011;32591;48.102;11.772;2023-03-01T10:16:22;26.00;;;12.90;;
46116;SDS011;32591;48.102;11.772;2023-03-01T10:18:59;23.90;;;11.65;;
46116;SDS011;32591;48.102;11.772;2023-03-01T10:21:30;21.03;;;11.07;;
46116;SDS011;32591;48.102;11.772;2023-03-01T10:24:10;23.83;;;11.15;;
46116;SDS011;32591;48.102;11.772;2023-03-01T10:26:43;24.90;;;12.27;;
46116;SDS011;32591;48.102;11.772;2023-03-01T10:31:46;29.92;;;12.55;;
46116;SDS011;32591;48.102;11.772;2023-03-01T10:34:16;23.27;;;13.43;;
46116;SDS011;32591;48.102;11.772;2023-03-01T10:36:48;23.60;;;12.60;;
46116;SDS011;32591;48.102;11.772;2023-03-01T10:39:18;28.42;;;14.10;;
46116;SDS011;32591;48.102;11.772;2023-03-01T10:41:57;23.90;;;12.57;;
46116;SDS011;32591;48.102;11.772;2023-03-01T10:44:40;26.13;;;12.73;;
46116;SDS011;32591;48.102;11.772;2023-03-01T10:47:13;32.67;;;14.98;;
46116;SDS011;32591;48.102;11.772;2023-03-01T10:49:51;31.20;;;13.63;;
46116;SDS011;32591;48.102;11.772;2023-03-01T10:52:26;28.15;;;14.02;;
46116;SDS011;32591;48.102;11.772;2023-03-01T10:54:59;29.58;;;16.52;;
46116;SDS011;32591;48.102;11.772;2023-03-01T10:57:34;25.30;;;13.65;;
46116;SDS011;32591;48.102;11.772;2023-03-01T11:03:04;25.23;;;14.20;;
46116;SDS011;32591;48.102;11.772;2023-03-01T11:05:49;27.75;;;15.50;;
46116;SDS011;32591;48.102;11.772;2023-03-01T11:08:30;28.67;;;13.82;;
46116;SDS011;32591;48.102;11.772;2023-03-01T11:13:57;25.95;;;14.93;;
46116;SDS011;32591;48.102;11.772;2023-03-01T11:16:30;24.80;;;13.80;;
46116;SDS011;32591;48.102;11.772;2023-03-01T11:19:12;29.80;;;15.18;;
46116;SDS011;32591;48.102;11.772;2023-03-01T11:21:47;25.63;;;14.80;;
46116;SDS011;32591;48.102;11.772;2023-03-01T11:24:25;26.63;;;14.73;;
46116;SDS011;32591;48.102;11.772;2023-03-01T11:26:58;27.70;;;14.77;;
46116;SDS011;32591;48.102;11.772;2023-03-01T11:29:30;24.85;;;14.98;;
46116;SDS011;32591;48.102;11.772;2023-03-01T11:32:05;23.60;;;14.13;;
46116;SDS011;32591;48.102;11.772;2023-03-01T11:34:37;27.50;;;14.80;;
46116;SDS011;32591;48.102;11.772;2023-03-01T11:37:12;31.08;;;14.57;;
46116;SDS011;32591;48.102;11.772;2023-03-01T11:39:53;27.10;;;15.07;;
46116;SDS011;32591;48.102;11.772;2023-03-01T11:42:28;28.33;;;15.07;;
46116;SDS011;32591;48.102;11.772;2023-03-01T11:45:06;27.85;;;15.82;;
46116;SDS011;32591;48.102;11.772;2023-03-01T11:50:29;23.85;;;14.30;;
46116;SDS011;32591;48.102;11.772;2023-03-01T11:55:54;22.77;;;13.05;;
46116;SDS011;32591;48.102;11.772;2023-03-01T12:01:38;27.63;;;14.95;;
46116;SDS011;32591;48.102;11.772;2023-03-01T12:04:29;24.20;;;14.93;;
46116;SDS011;32591;48.102;11.772;2023-03-01T12:07:16;26.20;;;15.48;;
46116;SDS011;32591;48.102;11.772;2023-03-01T12:09:55;25.25;;;14.60;;
46116;SDS011;32591;48.102;11.772;2023-03-01T12:12:48;26.20;;;15.57;;
46116;SDS011;32591;48.102;11.772;2023-03-01T12:15:36;23.58;;;13.45;;
46116;SDS011;32591;48.102;11.772;2023-03-01T12:18:35;25.38;;;13.77;;
46116;SDS011;32591;48.102;11.772;2023-03-01T12:21:18;27.77;;;14.93;;
46116;SDS011;32591;48.102;11.772;2023-03-01T12:24:10;28.75;;;13.90;;
46116;SDS011;32591;48.102;11.772;2023-03-01T12:27:06;24.42;;;13.13;;
46116;SDS011;32591;48.102;11.772;2023-03-01T12:29:52;25.27;;;13.95;;
46116;SDS011;32591;48.102;11.772;2023-03-01T12:32:28;24.15;;;13.80;;
46116;SDS011;32591;48.102;11.772;2023-03-01T12:35:16;27.88;;;15.35;;
46116;SDS011;32591;48.102;11.772;2023-03-01T12:38:02;26.08;;;14.07;;
46116;SDS011;32591;48.102;11.772;2023-03-01T12:41:01;23.85;;;14.68;;
46116;SDS011;32591;48.102;11.772;2023-03-01T12:44:01;23.08;;;13.90;;
46116;SDS011;32591;48.102;11.772;2023-03-01T12:46:44;27.23;;;14.73;;
46116;SDS011;32591;48.102;11.772;2023-03-01T12:49:20;31.27;;;14.63;;
46116;SDS011;32591;48.102;11.772;2023-03-01T12:51:54;23.85;;;15.52;;
46116;SDS011;32591;48.102;11.772;2023-03-01T12:54:27;25.98;;;14.57;;
46116;SDS011;32591;48.102;11.772;2023-03-01T12:56:57;26.52;;;15.88;;
46116;SDS011;32591;48.102;11.772;2023-03-01T12:59:36;27.45;;;14.98;;
46116;SDS011;32591;48.102;11.772;2023-03-01T13:02:13;27.08;;;14.38;;
46116;SDS011;32591;48.102;11.772;2023-03-01T13:04:53;26.67;;;13.80;;
46116;SDS011;32591;48.102;11.772;2023-03-01T13:07:44;26.52;;;16.70;;
46116;SDS011;32591;48.102;11.772;2023-03-01T13:10:21;32.05;;;16.40;;
46116;SDS011;32591;48.102;11.772;2023-03-01T13:13:00;25.25;;;14.60;;
46116;SDS011;32591;48.102;11.772;2023-03-01T13:15:39;27.60;;;16.23;;
46116;SDS011;32591;48.102;11.772;2023-03-01T13:20:58;27.67;;;15.18;;
46116;SDS011;32591;48.102;11.772;2023-03-01T13:23:29;26.45;;;16.08;;
46116;SDS011;32591;48.102;11.772;2023-03-01T13:26:05;28.83;;;15.77;;
46116;SDS011;32591;48.102;11.772;2023-03-01T13:28:50;26.05;;;15.80;;
46116;SDS011;32591;48.102;11.772;2023-03-01T13:37:33;24.95;;;14.55;;
46116;SDS011;32591;48.102;11.772;2023-03-01T13:40:05;27.42;;;15.43;;
46116;SDS011;32591;48.102;11.772;2023-03-01T13:43:29;26.48;;;15.85;;
46116;SDS011;32591;48.102;11.772;2023-03-01T13:45:58;24.52;;;15.30;;
46116;SDS011;32591;48.102;11.772;2023-03-01T13:48:26;25.15;;;14.95;;
46116;SDS011;32591;48.102;11.772;2023-03-01T13:50:57;25.42;;;15.48;;
46116;SDS011;32591;48.102;11.772;2023-03-01T13:53:28;24.02;;;14.80;;
46116;SDS011;32591;48.102;11.772;2023-03-01T13:56:00;27.20;;;15.88;;
46116;SDS011;32591;48.102;11.772;2023-03-01T13:58:43;31.85;;;16.73;;
46116;SDS011;32591;48.102;11.772;2023-03-01T14:01:21;29.35;;;16.83;;
46116;SDS011;32591;48.102;11.772;2023-03-01T14:03:51;28.65;;;15.48;;
46116;SDS011;32591;48.102;11.772;2023-03-01T14:06:21;25.58;;;16.13;;
46116;SDS011;32591;48.102;11.772;2023-03-01T14:08:51;28.45;;;16.02;;
46116;SDS011;32591;48.102;11.772;2023-03-01T14:14:36;26.10;;;14.10;;
46116;SDS011;32591;48.102;11.772;2023-03-01T14:17:15;25.90;;;14.45;;
46116;SDS011;32591;48.102;11.772;2023-03-01T14:20:11;27.17;;;14.18;;
46116;SDS011;32591;48.102;11.772;2023-03-01T14:22:45;24.42;;;15.52;;
46116;SDS011;32591;48.102;11.772;2023-03-01T14:25:19;24.35;;;14.63;;
46116;SDS011;32591;48.102;11.772;2023-03-01T14:27:54;24.65;;;14.77;;
46116;SDS011;32591;48.102;11.772;2023-03-01T14:30:25;21.48;;;12.75;;
46116;SDS011;32591;48.102;11.772;2023-03-01T14:32:58;24.75;;;13.80;;
46116;SDS011;32591;48.102;11.772;2023-03-01T14:35:28;22.75;;;13.45;;
46116;SDS011;32591;48.102;11.772;2023-03-01T14:37:59;26.42;;;13.50;;
46116;SDS011;32591;48.102;11.772;2023-03-01T14:40:27;22.08;;;13.88;;
46116;SDS011;32591;48.102;11.772;2023-03-01T14:42:58;23.67;;;13.73;;
46116;SDS011;32591;48.102;11.772;2023-03-01T14:45:27;25.30;;;14.80;;
46116;SDS011;32591;48.102;11.772;2023-03-01T14:47:58;28.33;;;13.65;;
46116;SDS011;32591;48.102;11.772;2023-03-01T14:50:28;24.73;;;13.88;;
46116;SDS011;32591;48.102;11.772;2023-03-01T14:52:58;30.05;;;14.77;;
46116;SDS011;32591;48.102;11.772;2023-03-01T14:55:28;21.27;;;13.15;;
46116;SDS011;32591;48.102;11.772;2023-03-01T14:57:59;26.60;;;15.07;;
46116;SDS011;32591;48.102;11.772;2023-03-01T15:00:30;25.58;;;14.45;;
46116;SDS011;32591;48.102;11.772;2023-03-01T15:03:00;24.38;;;13.63;;
46116;SDS011;32591;48.102;11.772;2023-03-01T15:05:38;23.63;;;15.52;;
46116;SDS011;32591;48.102;11.772;2023-03-01T15:08:11;27.65;;;14.32;;
46116;SDS011;32591;48.102;11.772;2023-03-01T15:10:55;24.58;;;13.93;;
46116;SDS011;32591;48.102;11.772;2023-03-01T15:13:26;23.23;;;13.27;;
46116;SDS011;32591;48.102;11.772;2023-03-01T15:16:01;19.98;;;12.85;;
46116;SDS011;32591;48.102;11.772;2023-03-01T15:21:06;24.42;;;13.15;;
46116;SDS011;32591;48.102;11.772;2023-03-01T15:23:36;26.00;;;14.02;;
46116;SDS011;32591;48.102;11.772;2023-03-01T15:26:06;23.75;;;13.10;;
46116;SDS011;32591;48.102;11.772;2023-03-01T15:28:49;23.30;;;13.02;;
46116;SDS011;32591;48.102;11.772;2023-03-01T15:31:19;25.85;;;13.35;;
46116;SDS011;32591;48.102;11.772;2023-03-01T15:33:50;26.23;;;13.07;;
46116;SDS011;32591;48.102;11.772;2023-03-01T15:36:30;20.83;;;12.10;;
46116;SDS011;32591;48.102;11.772;2023-03-01T15:39:04;22.73;;;13.35;;
46116;SDS011;32591;48.102;11.772;2023-03-01T15:41:47;28.02;;;13.38;;
46116;SDS011;32591;48.102;11.772;2023-03-01T15:44:15;24.02;;;13.50;;
46116;SDS011;32591;48.102;11.772;2023-03-01T15:46:45;25.42;;;13.57;;
46116;SDS011;32591;48.102;11.772;2023-03-01T15:49:23;24.92;;;13.40;;
46116;SDS011;32591;48.102;11.772;2023-03-01T15:52:00;20.45;;;12.98;;
46116;SDS011;32591;48.102;11.772;2023-03-01T15:54:28;22.23;;;12.32;;
46116;SDS011;32591;48.102;11.772;2023-03-01T15:56:55;20.80;;;11.85;;
46116;SDS011;32591;48.102;11.772;2023-03-01T15:59:22;23.35;;;13.60;;
46116;SDS011;32591;48.102;11.772;2023-03-01T16:01:49;25.73;;;12.77;;
46116;SDS011;32591;48.102;11.772;2023-03-01T16:04:17;19.92;;;11.68;;
46116;SDS011;32591;48.102;11.772;2023-03-01T16:06:48;21.98;;;13.10;;
46116;SDS011;32591;48.102;11.772;2023-03-01T16:09:19;22.63;;;12.63;;
46116;SDS011;32591;48.102;11.772;2023-03-01T16:11:50;19.48;;;11.88;;
46116;SDS011;32591;48.102;11.772;2023-03-01T16:14:19;22.23;;;12.13;;
46116;SDS011;32591;48.102;11.772;2023-03-01T16:16:46;20.05;;;12.07;;
46116;SDS011;32591;48.102;11.772;2023-03-01T16:19:14;24.30;;;12.65;;
46116;SDS011;32591;48.102;11.772;2023-03-01T16:21:42;21.33;;;12.90;;